createdAt,value
2022-11-10T00:02:41.283Z,1007.622
2022-11-10T00:07:44.352Z,1007.664
2022-11-10T00:12:47.039Z,1007.664
2022-11-10T00:17:49.635Z,1007.778
2022-11-10T00:22:52.558Z,1007.959
2022-11-10T00:27:55.282Z,1007.848
2022-11-10T00:32:57.891Z,1007.888
2022-11-10T00:38:00.802Z,1007.908
2022-11-10T00:43:03.691Z,1007.963
2022-11-10T00:48:06.237Z,1007.978
2022-11-10T00:53:08.653Z,1008.007
2022-11-10T00:58:11.142Z,1007.974
2022-11-10T01:03:13.766Z,1008.08
2022-11-10T01:08:16.912Z,1008.103
2022-11-10T01:13:19.911Z,1008.131
2022-11-10T01:18:22.477Z,1008.076
2022-11-10T01:23:25.387Z,1008.213
2022-11-10T01:28:27.672Z,1008.326
2022-11-10T01:33:30.520Z,1008.365
2022-11-10T01:38:39.047Z,1008.454
2022-11-10T01:43:41.694Z,1008.494
2022-11-10T01:48:44.665Z,1008.537
2022-11-10T01:53:47.402Z,1008.581
2022-11-10T01:58:50.075Z,1008.666
2022-11-10T02:03:52.788Z,1008.746
2022-11-10T02:08:55.520Z,1008.684
2022-11-10T02:13:58.067Z,1008.816
2022-11-10T02:19:00.642Z,1008.857
2022-11-10T02:29:08.466Z,1008.885
2022-11-10T02:34:11.321Z,1008.996
2022-11-10T02:39:13.924Z,1008.992
2022-11-10T02:44:16.643Z,1009.039
2022-11-10T02:49:19.276Z,1009.158
2022-11-10T02:54:21.909Z,1009.114
2022-11-10T02:59:24.625Z,1009.152
2022-11-10T03:04:27.195Z,1009.212
2022-11-10T03:09:29.804Z,1009.264
2022-11-10T03:14:32.530Z,1009.428
2022-11-10T03:19:35.278Z,1009.593
2022-11-10T03:24:37.942Z,1009.592
2022-11-10T03:29:40.639Z,1009.763
2022-11-10T03:34:43.354Z,1009.878
2022-11-10T03:39:46.053Z,1009.899
2022-11-10T03:44:48.561Z,1009.855
2022-11-10T03:49:51.275Z,1009.992
2022-11-10T03:54:54.766Z,1010.11
2022-11-10T03:59:56.855Z,1009.91
2022-11-10T04:04:59.498Z,1010.155
2022-11-10T04:10:02.199Z,1010.143
2022-11-10T04:15:04.993Z,1010.195
2022-11-10T04:20:07.466Z,1010.427
2022-11-10T04:25:10.162Z,1010.409
2022-11-10T04:30:12.950Z,1010.508
2022-11-10T04:35:15.562Z,1010.588
2022-11-10T04:40:18.338Z,1010.64
2022-11-10T04:45:24.388Z,1010.645
2022-11-10T04:50:26.930Z,1010.654
2022-11-10T04:55:29.899Z,1010.617
2022-11-10T05:00:32.800Z,1010.629
2022-11-10T05:05:35.315Z,1010.666
2022-11-10T05:10:37.785Z,1010.783
2022-11-10T05:15:40.672Z,1010.943
2022-11-10T05:20:43.348Z,1010.98
2022-11-10T05:25:46.103Z,1011.078
2022-11-10T05:30:48.762Z,1011.173
2022-11-10T05:35:51.501Z,1011.294
2022-11-10T05:40:54.179Z,1011.406
2022-11-10T05:45:56.934Z,1011.41
2022-11-10T05:50:59.487Z,1011.602
2022-11-10T05:56:02.241Z,1011.71
2022-11-10T06:01:05.102Z,1011.893
2022-11-10T06:06:08.101Z,1011.963
2022-11-10T06:11:10.679Z,1012.039
2022-11-10T06:16:13.339Z,1012.13
2022-11-10T06:21:15.972Z,1012.191
2022-11-10T06:26:18.764Z,1012.312
2022-11-10T06:31:21.920Z,1012.471
2022-11-10T06:36:24.399Z,1012.605
2022-11-10T06:41:27.007Z,1012.658
2022-11-10T06:46:29.838Z,1012.818
2022-11-10T06:51:32.375Z,1012.962
2022-11-10T06:56:35.029Z,1013.096
2022-11-10T07:01:37.730Z,1013.126
2022-11-10T07:06:47.016Z,1013.277
2022-11-10T07:11:49.876Z,1013.402
2022-11-10T07:16:52.595Z,1013.514
2022-11-10T07:22:01.996Z,1013.515
2022-11-10T07:27:04.031Z,1013.535
2022-11-10T07:32:06.671Z,1013.678
2022-11-10T07:37:09.369Z,1013.791
2022-11-10T07:42:12.158Z,1013.843
2022-11-10T07:47:14.902Z,1013.97
2022-11-10T07:52:17.546Z,1013.975
2022-11-10T07:57:20.137Z,1014.067
2022-11-10T08:02:23.258Z,1014.111
2022-11-10T08:07:26.014Z,1014.244
2022-11-10T08:12:31.310Z,1014.237
2022-11-10T08:17:31.340Z,1014.262
2022-11-10T08:22:34.163Z,1014.297
2022-11-10T08:27:37.258Z,1014.191
2022-11-10T08:32:39.915Z,1014.354
2022-11-10T08:37:42.759Z,1014.4
2022-11-10T08:42:48.450Z,1014.524
2022-11-10T08:47:51.329Z,1014.741
2022-11-10T08:52:54.005Z,1014.67
2022-11-10T08:57:56.824Z,1014.74
2022-11-10T09:03:03.871Z,1015.011
2022-11-10T09:08:06.584Z,1015.117
2022-11-10T09:13:09.245Z,1015.027
2022-11-10T09:18:11.956Z,1015.28
2022-11-10T09:23:14.525Z,1015.341
2022-11-10T09:28:17.276Z,1015.31
2022-11-10T09:33:20.457Z,1015.294
2022-11-10T09:38:25.671Z,1015.418
2022-11-10T09:43:28.499Z,1015.413
2022-11-10T09:48:31.103Z,1015.541
2022-11-10T09:53:33.780Z,1015.288
2022-11-10T09:59:06.605Z,1015.569
2022-11-10T10:04:09.479Z,1015.545
2022-11-10T10:09:12.300Z,1015.585
2022-11-10T10:14:15.112Z,1015.671
2022-11-10T10:19:17.817Z,1015.541
2022-11-10T10:24:22.238Z,1015.579
2022-11-10T10:29:22.975Z,1015.674
2022-11-10T10:34:25.821Z,1015.561
2022-11-10T10:39:28.356Z,1015.669
2022-11-10T10:44:31.075Z,1015.685
2022-11-10T10:49:33.602Z,1015.823
2022-11-10T10:54:36.093Z,1015.896
2022-11-10T10:59:38.870Z,1015.943
2022-11-10T11:10:11.655Z,1015.854
2022-11-10T11:15:14.303Z,1015.814
2022-11-10T11:20:17.084Z,1015.921
2022-11-10T11:25:19.867Z,1015.921
2022-11-10T11:30:22.458Z,1015.97
2022-11-10T11:35:24.876Z,1015.862
2022-11-10T11:40:27.570Z,1015.995
2022-11-10T11:45:30.452Z,1016.023
2022-11-10T11:50:33.254Z,1016.049
2022-11-10T11:55:36.615Z,1016.068
2022-11-10T12:00:39.172Z,1016.017
2022-11-10T12:05:41.547Z,1016.024
2022-11-10T12:10:44.345Z,1015.967
2022-11-10T12:15:46.829Z,1015.909
2022-11-10T12:20:49.722Z,1016.021
2022-11-10T12:25:52.932Z,1015.949
2022-11-10T12:31:01.529Z,1016.147
2022-11-10T12:35:59.249Z,1016.209
2022-11-10T12:41:01.973Z,1016.256
2022-11-10T12:46:04.708Z,1016.303
2022-11-10T12:51:07.411Z,1016.287
2022-11-10T12:56:10.185Z,1016.484
2022-11-10T13:01:12.765Z,1016.39
2022-11-10T13:06:15.397Z,1016.479
2022-11-10T13:11:17.901Z,1016.571
2022-11-10T13:16:20.771Z,1016.626
2022-11-10T13:21:23.472Z,1016.686
2022-11-10T13:26:26.194Z,1016.657
2022-11-10T13:31:28.956Z,1016.63
2022-11-10T13:36:31.571Z,1016.765
2022-11-10T13:41:34.735Z,1016.841
2022-11-10T13:46:37.187Z,1016.818
2022-11-10T13:51:40.035Z,1016.776
2022-11-10T13:56:42.815Z,1016.786
2022-11-10T14:01:45.344Z,1016.81
2022-11-10T14:06:48.070Z,1017.033
2022-11-10T14:11:51.829Z,1017.05
2022-11-10T14:17:02.561Z,1017.134
2022-11-10T14:22:05.443Z,1017.239
2022-11-10T14:27:14.240Z,1017.329
2022-11-10T14:32:17.830Z,1017.282
2022-11-10T14:37:20.424Z,1017.334
2022-11-10T14:42:23.777Z,1017.486
2022-11-10T14:52:29.139Z,1017.642
2022-11-10T14:57:31.807Z,1017.705
2022-11-10T15:02:34.449Z,1017.865
2022-11-10T15:07:36.930Z,1017.89
2022-11-10T15:12:42.147Z,1017.935
2022-11-10T15:17:42.082Z,1017.916
2022-11-10T15:22:44.594Z,1017.986
2022-11-10T15:27:50.987Z,1017.947
2022-11-10T15:32:49.914Z,1018.095
2022-11-10T15:37:52.535Z,1018.217
2022-11-10T15:42:55.102Z,1018.268
2022-11-10T15:47:57.312Z,1018.268
2022-11-10T15:52:59.981Z,1018.263
2022-11-10T15:58:02.709Z,1018.211
2022-11-10T16:03:05.196Z,1018.079
2022-11-10T16:08:07.932Z,1018.106
2022-11-10T16:13:11.239Z,1018.229
2022-11-10T16:18:16.507Z,1018.186
2022-11-10T16:23:19.374Z,1018.225
2022-11-10T16:28:22.539Z,1018.295
2022-11-10T16:33:24.650Z,1018.411
2022-11-10T16:38:29.257Z,1018.681
2022-11-10T16:43:32.124Z,1018.716
2022-11-10T16:48:34.547Z,1018.791
2022-11-10T16:53:37.137Z,1018.778
2022-11-10T16:58:39.964Z,1018.747
2022-11-10T17:03:42.539Z,1018.696
2022-11-10T17:08:45.486Z,1018.706
2022-11-10T17:13:48.132Z,1018.799
2022-11-10T17:18:50.824Z,1018.887
2022-11-10T17:23:53.583Z,1018.993
2022-11-10T17:28:56.591Z,1019.094
2022-11-10T17:33:59.230Z,1019.321
2022-11-10T17:39:01.964Z,1019.354
2022-11-10T17:44:04.780Z,1019.336
2022-11-10T17:49:07.351Z,1019.241
2022-11-10T17:54:10.149Z,1019.28
2022-11-10T17:59:13.182Z,1019.273
2022-11-10T18:04:15.553Z,1019.3
2022-11-10T18:09:18.161Z,1019.278
2022-11-10T18:14:20.989Z,1019.277
2022-11-10T18:19:24.415Z,1019.189
2022-11-10T18:24:26.856Z,1019.193
2022-11-10T18:29:29.976Z,1019.236
2022-11-10T18:34:32.514Z,1019.343
2022-11-10T18:39:35.262Z,1019.424
2022-11-10T18:50:08.316Z,1019.523
2022-11-10T18:55:11.172Z,1019.518
2022-11-10T19:00:13.875Z,1019.517
2022-11-10T19:05:16.673Z,1019.544
2022-11-10T19:10:19.210Z,1019.497
2022-11-10T19:15:21.888Z,1019.557
2022-11-10T19:20:24.682Z,1019.767
2022-11-10T19:25:29.055Z,1019.66
2022-11-10T19:30:31.531Z,1019.737
2022-11-10T19:35:34.377Z,1019.862
2022-11-10T19:40:36.929Z,1019.664
2022-11-10T19:45:43.584Z,1019.593
2022-11-10T19:50:49.476Z,1019.747
2022-11-10T19:55:50.768Z,1019.694
2022-11-10T20:00:53.398Z,1019.7
2022-11-10T20:05:55.992Z,1019.797
2022-11-10T20:11:04.558Z,1019.762
2022-11-10T20:16:07.251Z,1019.86
2022-11-10T20:21:09.987Z,1019.994
2022-11-10T20:26:12.472Z,1020.133
2022-11-10T20:31:15.262Z,1020.156
2022-11-10T20:36:20.483Z,1020.227
2022-11-10T20:41:20.702Z,1020.288
2022-11-10T20:46:40.682Z,1020.335
2022-11-10T20:51:26.051Z,1020.323
2022-11-10T20:56:30.064Z,1020.399
2022-11-10T21:01:31.382Z,1020.422
2022-11-10T21:06:34.134Z,1020.514
2022-11-10T21:11:36.698Z,1020.681
2022-11-10T21:16:39.254Z,1020.635
2022-11-10T21:21:42.147Z,1020.644
2022-11-10T21:26:44.725Z,1020.579
2022-11-10T21:31:47.470Z,1020.548
2022-11-10T21:36:50.359Z,1020.594
2022-11-10T21:41:52.871Z,1020.525
2022-11-10T21:46:55.614Z,1020.437
2022-11-10T21:51:58.343Z,1020.412
2022-11-10T21:57:01.066Z,1020.469
2022-11-10T22:02:03.599Z,1020.471
2022-11-10T22:07:06.286Z,1020.476
2022-11-10T22:12:08.593Z,1020.514
2022-11-10T22:17:11.309Z,1020.639
2022-11-10T22:22:14.222Z,1020.767
2022-11-10T22:27:16.449Z,1020.817
2022-11-10T22:32:19.308Z,1020.939
2022-11-10T22:37:21.957Z,1020.937
2022-11-10T22:42:24.422Z,1020.927
2022-11-10T22:47:26.910Z,1020.963
2022-11-10T22:52:29.729Z,1021.025
2022-11-10T22:57:32.162Z,1020.976
2022-11-10T23:02:35.004Z,1020.906
2022-11-10T23:07:37.641Z,1020.964
2022-11-10T23:12:39.901Z,1020.994
2022-11-10T23:17:42.337Z,1021
2022-11-10T23:22:45.054Z,1021.104
2022-11-10T23:27:47.266Z,1021.198
2022-11-10T23:32:50.199Z,1021.112
2022-11-10T23:37:53.191Z,1021.14
2022-11-10T23:42:55.500Z,1020.984
2022-11-10T23:47:57.985Z,1021.082
2022-11-10T23:53:00.793Z,1021.139
2022-11-10T23:58:03.267Z,1021.155
